createdAt,value
2023-01-29T00:01:35.961Z,98961.88
2023-01-29T00:04:04.105Z,98955.69
2023-01-29T00:06:32.616Z,98951.72
2023-01-29T00:09:02.042Z,98950.28
2023-01-29T00:11:31.542Z,98960.72
2023-01-29T00:14:00.002Z,98960.97
2023-01-29T00:16:28.260Z,98964.63
2023-01-29T00:18:56.444Z,98961.78
2023-01-29T00:21:24.990Z,98951.41
2023-01-29T00:23:53.121Z,98957.84
2023-01-29T00:26:22.504Z,98951.03
2023-01-29T00:28:50.630Z,98953.00
2023-01-29T00:31:19.395Z,98944.00
2023-01-29T00:33:47.626Z,98948.41
2023-01-29T00:36:17.329Z,98944.41
2023-01-29T00:38:46.574Z,98938.72
2023-01-29T00:41:32.833Z,98939.34
2023-01-29T00:44:25.316Z,98937.78
2023-01-29T00:46:53.481Z,98927.91
2023-01-29T00:49:21.694Z,98935.09
2023-01-29T00:52:09.769Z,98935.91
2023-01-29T00:57:40.560Z,98934.66
2023-01-29T01:00:12.549Z,98937.47
2023-01-29T01:02:58.102Z,98940.03
2023-01-29T01:05:26.185Z,98935.66
2023-01-29T01:07:55.751Z,98938.81
2023-01-29T01:10:24.375Z,98934.16
2023-01-29T01:12:54.597Z,98939.50
2023-01-29T01:15:24.629Z,98930.63
2023-01-29T01:17:56.340Z,98926.38
2023-01-29T01:20:24.618Z,98936.41
2023-01-29T01:22:52.901Z,98942.28
2023-01-29T01:25:21.442Z,98930.38
2023-01-29T01:27:49.400Z,98928.69
2023-01-29T01:30:18.016Z,98928.72
2023-01-29T01:32:47.707Z,98935.00
2023-01-29T01:35:16.190Z,98935.25
2023-01-29T01:37:44.422Z,98925.06
2023-01-29T01:40:18.426Z,98924.69
2023-01-29T01:42:48.644Z,98926.91
2023-01-29T01:45:20.867Z,98923.00
2023-01-29T01:47:52.660Z,98921.53
2023-01-29T01:50:23.737Z,98915.19
2023-01-29T01:52:54.341Z,98911.59
2023-01-29T01:55:24.383Z,98910.97
2023-01-29T01:57:54.238Z,98905.69
2023-01-29T02:00:23.625Z,98907.44
2023-01-29T02:03:10.299Z,98898.66
2023-01-29T02:05:56.316Z,98892.91
2023-01-29T02:08:46.035Z,98894.00
2023-01-29T02:11:14.495Z,98891.34
2023-01-29T02:13:42.967Z,98895.16
2023-01-29T02:16:11.070Z,98886.34
2023-01-29T02:18:40.473Z,98887.50
2023-01-29T02:21:25.515Z,98878.75
2023-01-29T02:27:01.494Z,98873.00
2023-01-29T02:29:35.510Z,98867.41
2023-01-29T02:32:10.222Z,98862.06
2023-01-29T02:34:59.967Z,98861.47
2023-01-29T02:37:36.167Z,98857.44
2023-01-29T02:40:08.728Z,98856.25
2023-01-29T02:42:38.108Z,98849.81
2023-01-29T02:45:11.848Z,98842.38
2023-01-29T02:47:46.855Z,98853.06
2023-01-29T02:50:19.147Z,98852.03
2023-01-29T02:52:54.335Z,98842.53
2023-01-29T02:55:24.702Z,98832.94
2023-01-29T02:57:54.607Z,98836.94
2023-01-29T03:00:27.641Z,98824.75
2023-01-29T03:02:59.991Z,98823.47
2023-01-29T03:05:30.275Z,98820.66
2023-01-29T03:08:02.673Z,98822.13
2023-01-29T03:10:33.553Z,98819.19
2023-01-29T03:13:04.678Z,98814.16
2023-01-29T03:15:39.218Z,98814.00
2023-01-29T03:18:10.059Z,98811.03
2023-01-29T03:20:41.372Z,98812.59
2023-01-29T03:23:12.580Z,98800.41
2023-01-29T03:25:59.591Z,98799.63
2023-01-29T03:28:46.733Z,98788.78
2023-01-29T03:31:34.490Z,98796.41
2023-01-29T03:34:06.614Z,98775.16
2023-01-29T03:36:39.969Z,98788.41
2023-01-29T03:39:08.786Z,98776.38
2023-01-29T03:41:39.218Z,98767.38
2023-01-29T03:44:11.549Z,98768.97
2023-01-29T03:46:44.888Z,98762.38
2023-01-29T03:49:16.929Z,98759.00
2023-01-29T03:51:52.725Z,98747.97
2023-01-29T03:54:26.662Z,98747.97
2023-01-29T03:56:58.859Z,98731.97
2023-01-29T03:59:33.151Z,98736.75
2023-01-29T04:02:04.690Z,98736.34
2023-01-29T04:04:34.283Z,98736.75
2023-01-29T04:07:05.657Z,98735.34
2023-01-29T04:09:35.641Z,98729.94
2023-01-29T04:12:05.423Z,98731.75
2023-01-29T04:14:34.313Z,98719.72
2023-01-29T04:17:08.564Z,98715.13
2023-01-29T04:19:37.199Z,98718.94
2023-01-29T04:22:06.906Z,98717.50
2023-01-29T04:24:35.846Z,98720.13
2023-01-29T04:27:21.930Z,98724.53
2023-01-29T04:29:59.299Z,98723.31
2023-01-29T04:32:33.444Z,98723.16
2023-01-29T04:35:02.794Z,98718.72
2023-01-29T04:37:36.825Z,98720.72
2023-01-29T04:40:10.952Z,98707.09
2023-01-29T04:42:44.185Z,98714.50
2023-01-29T04:45:17.949Z,98713.91
2023-01-29T04:47:52.013Z,98708.31
2023-01-29T04:50:25.899Z,98718.94
2023-01-29T04:52:57.181Z,98705.50
2023-01-29T04:55:31.630Z,98709.09
2023-01-29T04:58:04.713Z,98712.72
2023-01-29T05:00:35.216Z,98695.50
2023-01-29T05:03:05.320Z,98698.28
2023-01-29T05:05:33.790Z,98700.28
2023-01-29T05:08:01.878Z,98693.28
2023-01-29T05:10:30.748Z,98678.47
2023-01-29T05:13:01.278Z,98682.66
2023-01-29T05:15:33.077Z,98689.47
2023-01-29T05:18:03.126Z,98690.88
2023-01-29T05:20:34.537Z,98689.09
2023-01-29T05:23:02.546Z,98703.50
2023-01-29T05:25:31.706Z,98698.69
2023-01-29T05:28:04.933Z,98694.69
2023-01-29T05:30:33.935Z,98695.28
2023-01-29T05:33:02.275Z,98696.28
2023-01-29T05:35:30.955Z,98691.09
2023-01-29T05:38:00.383Z,98695.91
2023-01-29T05:40:28.500Z,98697.91
2023-01-29T05:42:56.692Z,98701.09
2023-01-29T05:48:14.004Z,98704.31
2023-01-29T05:50:41.878Z,98699.50
2023-01-29T05:53:11.415Z,98703.88
2023-01-29T05:55:41.892Z,98703.09
2023-01-29T05:58:10.008Z,98704.91
2023-01-29T06:00:37.896Z,98699.28
2023-01-29T06:03:06.755Z,98701.91
2023-01-29T06:05:35.144Z,98704.72
2023-01-29T06:08:03.191Z,98705.50
2023-01-29T06:10:32.965Z,98706.69
2023-01-29T06:13:01.002Z,98707.50
2023-01-29T06:15:29.057Z,98705.50
2023-01-29T06:17:57.482Z,98706.72
2023-01-29T06:20:26.110Z,98703.88
2023-01-29T06:22:54.410Z,98694.69
2023-01-29T06:25:22.309Z,98696.91
2023-01-29T06:27:53.129Z,98687.28
2023-01-29T06:30:23.507Z,98683.28
2023-01-29T06:32:51.360Z,98673.47
2023-01-29T06:35:19.311Z,98675.84
2023-01-29T06:37:47.221Z,98681.28
2023-01-29T06:40:15.724Z,98671.84
2023-01-29T06:42:46.056Z,98675.28
2023-01-29T06:45:15.877Z,98677.44
2023-01-29T06:47:43.702Z,98683.47
2023-01-29T06:50:12.510Z,98676.84
2023-01-29T06:52:40.377Z,98680.03
2023-01-29T06:55:08.688Z,98675.84
2023-01-29T06:57:36.827Z,98673.44
2023-01-29T07:00:06.571Z,98666.00
2023-01-29T07:02:36.059Z,98660.59
2023-01-29T07:05:04.099Z,98656.38
2023-01-29T07:07:32.144Z,98648.75
2023-01-29T07:10:00.121Z,98640.09
2023-01-29T07:12:28.219Z,98634.84
2023-01-29T07:14:56.144Z,98642.88
2023-01-29T07:17:24.239Z,98656.88
2023-01-29T07:19:53.656Z,98652.03
2023-01-29T07:22:21.771Z,98658.63
2023-01-29T07:24:50.198Z,98644.00
2023-01-29T07:27:18.101Z,98649.78
2023-01-29T07:29:46.375Z,98657.59
2023-01-29T07:32:14.584Z,98650.34
2023-01-29T07:34:42.636Z,98646.03
2023-01-29T07:37:12.607Z,98647.00
2023-01-29T07:39:40.641Z,98640.31
2023-01-29T07:42:08.707Z,98636.56
2023-01-29T07:44:37.024Z,98640.06
2023-01-29T07:47:05.141Z,98630.16
2023-01-29T07:49:33.235Z,98627.69
2023-01-29T07:52:01.293Z,98629.59
2023-01-29T07:54:30.825Z,98617.72
2023-01-29T07:56:58.775Z,98620.94
2023-01-29T07:59:26.885Z,98617.47
2023-01-29T08:01:54.846Z,98611.00
2023-01-29T08:04:23.502Z,98617.69
2023-01-29T08:06:51.742Z,98620.00
2023-01-29T08:09:19.616Z,98627.97
2023-01-29T08:11:49.250Z,98622.09
2023-01-29T08:14:17.219Z,98618.53
2023-01-29T08:16:45.521Z,98607.56
2023-01-29T08:19:13.658Z,98607.50
2023-01-29T08:21:42.019Z,98605.00
2023-01-29T08:24:10.401Z,98598.53
2023-01-29T08:26:38.594Z,98596.00
2023-01-29T08:29:07.986Z,98589.34
2023-01-29T08:31:36.418Z,98589.09
2023-01-29T08:34:04.883Z,98590.94
2023-01-29T08:36:32.964Z,98597.28
2023-01-29T08:39:00.989Z,98589.09
2023-01-29T08:41:29.058Z,98596.72
2023-01-29T08:43:57.886Z,98596.50
2023-01-29T08:46:27.373Z,98597.09
2023-01-29T08:48:55.561Z,98599.53
2023-01-29T08:51:23.539Z,98594.69
2023-01-29T08:53:51.716Z,98599.78
2023-01-29T08:56:19.720Z,98593.75
2023-01-29T08:58:59.283Z,98588.63
2023-01-29T09:04:29.430Z,98585.50
2023-01-29T09:06:57.559Z,98581.72
2023-01-29T09:09:25.591Z,98585.94
2023-01-29T09:11:53.766Z,98573.16
2023-01-29T09:14:21.909Z,98581.41
2023-01-29T09:17:00.519Z,98580.69
2023-01-29T09:19:30.315Z,98588.59
2023-01-29T09:22:00.704Z,98583.22
2023-01-29T09:24:28.829Z,98581.81
2023-01-29T09:26:56.887Z,98574.84
2023-01-29T09:29:26.092Z,98566.00
2023-01-29T09:31:54.320Z,98570.16
2023-01-29T09:34:22.525Z,98569.56
2023-01-29T09:36:53.322Z,98556.03
2023-01-29T09:39:21.320Z,98554.25
2023-01-29T09:41:54.482Z,98548.81
2023-01-29T09:44:28.199Z,98543.31
2023-01-29T09:46:57.394Z,98537.03
2023-01-29T09:49:28.861Z,98547.59
2023-01-29T09:52:00.394Z,98543.41
2023-01-29T09:54:31.135Z,98537.59
2023-01-29T09:56:59.444Z,98530.53
2023-01-29T09:59:28.774Z,98535.16
2023-01-29T10:02:01.324Z,98522.25
2023-01-29T10:04:41.611Z,98520.72
2023-01-29T10:07:21.584Z,98517.09
2023-01-29T10:09:59.497Z,98506.97
2023-01-29T10:12:41.918Z,98503.34
2023-01-29T10:15:21.142Z,98518.72
2023-01-29T10:17:56.959Z,98507.56
2023-01-29T10:20:34.574Z,98502.78
2023-01-29T10:23:16.847Z,98492.94
2023-01-29T10:25:46.388Z,98477.47
2023-01-29T10:28:17.795Z,98471.41
2023-01-29T10:30:51.177Z,98466.72
2023-01-29T10:33:20.644Z,98456.72
2023-01-29T10:35:53.790Z,98454.72
2023-01-29T10:38:29.928Z,98449.66
2023-01-29T10:41:02.138Z,98448.25
2023-01-29T10:43:38.783Z,98447.38
2023-01-29T10:46:12.688Z,98436.81
2023-01-29T10:48:55.323Z,98424.97
2023-01-29T10:51:35.267Z,98433.00
2023-01-29T10:54:13.586Z,98434.56
2023-01-29T10:56:47.328Z,98420.03
2023-01-29T10:59:25.475Z,98420.63
2023-01-29T11:01:55.300Z,98420.91
2023-01-29T11:04:26.766Z,98421.63
2023-01-29T11:06:57.472Z,98410.31
2023-01-29T11:12:11.599Z,98405.59
2023-01-29T11:14:44.011Z,98404.25
2023-01-29T11:17:16.646Z,98404.06
2023-01-29T11:19:45.498Z,98396.22
2023-01-29T11:22:17.628Z,98393.31
2023-01-29T11:24:47.554Z,98399.25
2023-01-29T11:27:17.452Z,98405.81
2023-01-29T11:29:48.323Z,98397.63
2023-01-29T11:32:26.407Z,98395.09
2023-01-29T11:34:59.147Z,98396.75
2023-01-29T11:37:36.010Z,98397.81
2023-01-29T11:40:28.016Z,98393.81
2023-01-29T11:42:55.942Z,98384.84
2023-01-29T11:45:27.551Z,98393.22
2023-01-29T11:47:56.953Z,98388.69
2023-01-29T11:50:27.284Z,98397.88
2023-01-29T11:52:56.249Z,98381.72
2023-01-29T11:55:29.605Z,98378.00
2023-01-29T11:58:05.161Z,98389.28
2023-01-29T12:00:34.756Z,98380.31
2023-01-29T12:03:07.200Z,98369.22
2023-01-29T12:05:35.531Z,98364.09
2023-01-29T12:13:41.028Z,98367.06
2023-01-29T12:16:14.773Z,98369.91
2023-01-29T12:18:45.107Z,98365.63
2023-01-29T12:21:16.136Z,98362.94
2023-01-29T12:23:48.283Z,98364.50
2023-01-29T12:26:17.916Z,98363.31
2023-01-29T12:28:51.948Z,98359.47
2023-01-29T12:31:28.256Z,98356.06
2023-01-29T12:34:01.467Z,98364.09
2023-01-29T12:36:33.422Z,98363.41
2023-01-29T12:39:01.513Z,98369.03
2023-01-29T12:41:36.751Z,98364.34
2023-01-29T12:44:08.526Z,98366.56
2023-01-29T12:46:40.427Z,98366.81
2023-01-29T12:49:13.320Z,98370.41
2023-01-29T12:51:46.177Z,98369.75
2023-01-29T12:54:16.171Z,98364.13
2023-01-29T12:56:47.468Z,98362.53
2023-01-29T12:59:21.569Z,98357.69
2023-01-29T13:01:51.997Z,98366.34
2023-01-29T13:04:26.545Z,98360.50
2023-01-29T13:06:59.583Z,98362.09
2023-01-29T13:09:29.996Z,98361.19
2023-01-29T13:12:00.623Z,98352.84
2023-01-29T13:14:34.326Z,98349.41
2023-01-29T13:17:09.771Z,98345.94
2023-01-29T13:19:39.667Z,98339.34
2023-01-29T13:22:13.795Z,98339.28
2023-01-29T13:24:47.889Z,98344.06
2023-01-29T13:27:22.372Z,98341.41
2023-01-29T13:29:52.110Z,98344.50
2023-01-29T13:32:22.752Z,98337.31
2023-01-29T13:34:52.123Z,98339.22
2023-01-29T13:37:23.214Z,98336.63
2023-01-29T13:39:52.628Z,98328.22
2023-01-29T13:42:21.770Z,98343.66
2023-01-29T13:44:52.697Z,98334.19
2023-01-29T13:47:25.419Z,98338.75
2023-01-29T13:49:57.808Z,98329.47
2023-01-29T13:52:31.488Z,98329.09
2023-01-29T13:55:01.044Z,98320.72
2023-01-29T13:57:37.624Z,98330.50
2023-01-29T14:00:08.057Z,98325.13
2023-01-29T14:02:36.240Z,98330.75
2023-01-29T14:05:23.067Z,98323.94
2023-01-29T14:07:52.227Z,98317.59
2023-01-29T14:10:21.190Z,98323.22
2023-01-29T14:12:53.151Z,98310.34
2023-01-29T14:15:24.576Z,98303.69
2023-01-29T14:18:16.222Z,98305.84
2023-01-29T14:20:53.249Z,98302.00
2023-01-29T14:23:28.005Z,98299.84
2023-01-29T14:25:56.155Z,98299.41
2023-01-29T14:28:25.527Z,98301.38
2023-01-29T14:30:55.433Z,98306.16
2023-01-29T14:33:26.649Z,98304.13
2023-01-29T14:35:56.541Z,98298.25
2023-01-29T14:38:25.204Z,98303.47
2023-01-29T14:41:03.625Z,98302.44
2023-01-29T14:43:31.784Z,98303.63
2023-01-29T14:46:23.811Z,98304.88
2023-01-29T14:48:52.070Z,98298.06
2023-01-29T14:51:21.076Z,98303.53
2023-01-29T14:53:57.190Z,98298.72
2023-01-29T14:56:29.009Z,98302.81
2023-01-29T14:58:58.724Z,98292.16
2023-01-29T15:01:30.893Z,98295.50
2023-01-29T15:04:01.912Z,98292.47
2023-01-29T15:06:33.847Z,98298.13
2023-01-29T15:09:14.319Z,98296.16
2023-01-29T15:11:48.543Z,98294.28
2023-01-29T15:14:24.188Z,98305.72
2023-01-29T15:17:03.400Z,98291.75
2023-01-29T15:25:16.027Z,98286.75
2023-01-29T15:27:45.216Z,98280.16
2023-01-29T15:30:16.940Z,98287.69
2023-01-29T15:32:47.498Z,98290.88
2023-01-29T15:35:21.041Z,98291.06
2023-01-29T15:37:59.716Z,98289.84
2023-01-29T15:40:28.451Z,98287.56
2023-01-29T15:42:56.994Z,98287.81
2023-01-29T15:45:26.250Z,98288.47
2023-01-29T15:47:57.133Z,98292.50
2023-01-29T15:50:25.383Z,98293.66
2023-01-29T15:52:55.008Z,98293.03
2023-01-29T15:55:24.995Z,98291.00
2023-01-29T15:57:53.286Z,98267.59
2023-01-29T16:00:23.296Z,98271.34
2023-01-29T16:02:51.346Z,98273.47
2023-01-29T16:05:23.130Z,98276.28
2023-01-29T16:07:51.676Z,98263.41
2023-01-29T16:10:21.226Z,98272.41
2023-01-29T16:12:51.888Z,98273.19
2023-01-29T16:15:23.355Z,98264.00
2023-01-29T16:17:52.207Z,98263.25
2023-01-29T16:20:32.771Z,98247.25
2023-01-29T16:23:01.451Z,98259.47
2023-01-29T16:25:30.819Z,98265.91
2023-01-29T16:27:59.176Z,98266.78
2023-01-29T16:30:28.395Z,98264.97
2023-01-29T16:33:02.513Z,98272.00
2023-01-29T16:35:32.115Z,98268.75
2023-01-29T16:38:02.842Z,98253.13
2023-01-29T16:40:33.475Z,98256.72
2023-01-29T16:43:41.963Z,98252.94
2023-01-29T16:46:18.489Z,98254.59
2023-01-29T16:48:46.802Z,98256.56
2023-01-29T16:51:18.957Z,98253.38
2023-01-29T16:54:11.273Z,98256.56
2023-01-29T16:56:40.299Z,98247.75
2023-01-29T16:59:13.974Z,98242.09
2023-01-29T17:01:42.292Z,98236.72
2023-01-29T17:04:12.274Z,98241.75
2023-01-29T17:06:42.907Z,98238.19
2023-01-29T17:09:20.653Z,98231.75
2023-01-29T17:11:50.669Z,98223.19
2023-01-29T17:14:20.129Z,98225.16
2023-01-29T17:16:51.372Z,98227.53
2023-01-29T17:19:21.743Z,98224.56
2023-01-29T17:21:51.529Z,98218.63
2023-01-29T17:24:19.436Z,98219.38
2023-01-29T17:26:48.299Z,98211.31
2023-01-29T17:29:19.247Z,98217.13
2023-01-29T17:31:47.607Z,98217.38
2023-01-29T17:34:16.848Z,98225.59
2023-01-29T17:36:45.232Z,98216.97
2023-01-29T17:39:18.349Z,98228.56
2023-01-29T17:41:47.453Z,98229.03
2023-01-29T17:44:15.649Z,98223.81
2023-01-29T17:46:43.579Z,98228.44
2023-01-29T17:49:20.445Z,98217.31
2023-01-29T17:51:49.537Z,98213.81
2023-01-29T17:54:18.929Z,98214.06
2023-01-29T17:56:46.848Z,98217.94
2023-01-29T17:59:15.749Z,98214.88
2023-01-29T18:01:43.819Z,98212.31
2023-01-29T18:04:12.481Z,98208.31
2023-01-29T18:06:41.071Z,98204.00
2023-01-29T18:09:09.560Z,98208.44
2023-01-29T18:11:40.623Z,98208.25
2023-01-29T18:14:14.279Z,98195.78
2023-01-29T18:16:43.679Z,98196.38
2023-01-29T18:19:15.869Z,98199.78
2023-01-29T18:21:43.855Z,98196.66
2023-01-29T18:24:11.881Z,98202.63
2023-01-29T18:26:41.329Z,98195.59
2023-01-29T18:29:09.863Z,98196.13
2023-01-29T18:31:37.811Z,98204.28
2023-01-29T18:34:05.829Z,98192.88
2023-01-29T18:36:33.962Z,98194.72
2023-01-29T18:39:01.864Z,98191.47
2023-01-29T18:41:30.251Z,98191.84
2023-01-29T18:43:59.897Z,98191.47
2023-01-29T18:46:28.056Z,98192.28
2023-01-29T18:48:56.000Z,98188.59
2023-01-29T18:51:24.000Z,98186.13
2023-01-29T18:53:52.317Z,98201.50
2023-01-29T18:56:20.551Z,98195.13
2023-01-29T18:58:52.302Z,98200.13
2023-01-29T19:01:23.002Z,98193.31
2023-01-29T19:03:50.995Z,98194.91
2023-01-29T19:06:18.831Z,98198.13
2023-01-29T19:08:47.705Z,98194.53
2023-01-29T19:11:15.809Z,98188.97
2023-01-29T19:13:43.862Z,98183.31
2023-01-29T19:16:13.724Z,98176.81
2023-01-29T19:18:43.713Z,98182.16
2023-01-29T19:21:12.874Z,98177.59
2023-01-29T19:23:41.247Z,98159.31
2023-01-29T19:26:09.504Z,98160.81
2023-01-29T19:28:37.606Z,98163.28
2023-01-29T19:31:06.090Z,98164.75
2023-01-29T19:33:34.447Z,98160.03
2023-01-29T19:36:04.097Z,98162.03
2023-01-29T19:38:33.796Z,98153.63
2023-01-29T19:41:01.795Z,98159.38
2023-01-29T19:43:32.941Z,98155.41
2023-01-29T19:46:01.972Z,98149.91
2023-01-29T19:48:29.936Z,98157.06
2023-01-29T19:50:59.105Z,98148.09
2023-01-29T19:53:29.097Z,98149.66
2023-01-29T19:56:01.452Z,98146.22
2023-01-29T19:58:30.210Z,98154.38
2023-01-29T20:00:58.995Z,98144.25
2023-01-29T20:03:28.963Z,98139.06
2023-01-29T20:05:57.216Z,98145.63
2023-01-29T20:08:25.275Z,98153.09
2023-01-29T20:10:54.660Z,98143.59
2023-01-29T20:13:22.686Z,98135.94
2023-01-29T20:15:51.511Z,98128.13
2023-01-29T20:18:19.836Z,98124.63
2023-01-29T20:20:48.974Z,98120.16
2023-01-29T20:23:27.994Z,98118.34
2023-01-29T20:26:05.350Z,98112.63
2023-01-29T20:28:33.461Z,98099.50
2023-01-29T20:31:01.616Z,98093.66
2023-01-29T20:33:30.020Z,98090.09
2023-01-29T20:35:59.051Z,98092.88
2023-01-29T20:38:30.408Z,98090.84
2023-01-29T20:41:03.374Z,98100.94
2023-01-29T20:43:33.109Z,98095.97
2023-01-29T20:46:01.476Z,98086.78
2023-01-29T20:48:29.806Z,98083.94
2023-01-29T20:50:58.293Z,98079.97
2023-01-29T20:53:26.166Z,98082.00
2023-01-29T20:55:54.338Z,98081.28
2023-01-29T20:58:22.608Z,98078.81
2023-01-29T21:00:52.042Z,98088.88
2023-01-29T21:03:20.070Z,98079.13
2023-01-29T21:05:47.960Z,98083.34
2023-01-29T21:08:16.163Z,98080.50
2023-01-29T21:10:45.255Z,98087.72
2023-01-29T21:13:16.403Z,98085.06
2023-01-29T21:15:44.857Z,98076.53
2023-01-29T21:18:14.321Z,98070.34
2023-01-29T21:20:42.166Z,98065.66
2023-01-29T21:23:10.718Z,98052.63
2023-01-29T21:25:39.863Z,98056.63
2023-01-29T21:28:08.350Z,98058.78
2023-01-29T21:30:36.466Z,98060.59
2023-01-29T21:33:04.542Z,98065.09
2023-01-29T21:35:36.902Z,98064.59
2023-01-29T21:38:05.119Z,98064.00
2023-01-29T21:40:33.232Z,98056.72
2023-01-29T21:43:12.199Z,98055.84
2023-01-29T21:45:40.726Z,98053.78
2023-01-29T21:48:09.049Z,98056.88
2023-01-29T21:50:38.358Z,98059.31
2023-01-29T21:53:06.529Z,98069.00
2023-01-29T21:55:34.625Z,98058.72
2023-01-29T21:58:02.664Z,98049.00
2023-01-29T22:00:30.578Z,98045.25
2023-01-29T22:02:58.683Z,98056.91
2023-01-29T22:05:26.725Z,98058.22
2023-01-29T22:07:56.611Z,98055.78
2023-01-29T22:10:24.793Z,98045.91
2023-01-29T22:12:52.919Z,98051.66
2023-01-29T22:15:23.474Z,98043.75
2023-01-29T22:17:51.870Z,98035.28
2023-01-29T22:23:13.023Z,98028.56
2023-01-29T22:25:41.074Z,98022.44
2023-01-29T22:28:09.258Z,98014.72
2023-01-29T22:30:37.203Z,98016.22
2023-01-29T22:33:05.181Z,98009.34
2023-01-29T22:35:33.199Z,98007.19
2023-01-29T22:38:01.182Z,98007.16
2023-01-29T22:40:30.460Z,98009.75
2023-01-29T22:42:59.029Z,97994.38
2023-01-29T22:45:27.640Z,97987.47
2023-01-29T22:47:55.477Z,97976.63
2023-01-29T22:50:23.598Z,97972.22
2023-01-29T22:52:53.999Z,97978.31
2023-01-29T22:55:22.585Z,97976.03
2023-01-29T22:57:53.520Z,97981.94
2023-01-29T23:00:21.939Z,97970.63
2023-01-29T23:02:49.993Z,97978.44
2023-01-29T23:05:18.160Z,97967.66
2023-01-29T23:07:46.355Z,97963.47
2023-01-29T23:10:15.195Z,97964.25
2023-01-29T23:12:44.517Z,97962.91
2023-01-29T23:15:13.921Z,97959.94
2023-01-29T23:17:41.973Z,97956.28
2023-01-29T23:20:10.262Z,97947.47
2023-01-29T23:22:38.739Z,97951.38
2023-01-29T23:25:07.104Z,97949.34
2023-01-29T23:27:34.278Z,97952.53
2023-01-29T23:30:02.368Z,97942.47
2023-01-29T23:32:32.419Z,97936.47
2023-01-29T23:35:00.289Z,97944.41
2023-01-29T23:37:28.538Z,97936.94
2023-01-29T23:39:56.627Z,97937.16
2023-01-29T23:42:24.655Z,97934.22
2023-01-29T23:44:52.540Z,97934.44
2023-01-29T23:47:20.672Z,97928.22
2023-01-29T23:49:50.127Z,97921.41
2023-01-29T23:52:18.190Z,97920.84
2023-01-29T23:54:46.073Z,97921.63
2023-01-29T23:57:14.146Z,97909.84
2023-01-29T23:59:42.389Z,97903.63
